createdAt,value
2023-01-13T00:01:32.146Z,27.10
2023-01-13T00:04:05.687Z,26.90
2023-01-13T00:06:34.379Z,27.20
2023-01-13T00:09:03.200Z,26.90
2023-01-13T00:11:31.882Z,26.80
2023-01-13T00:14:00.596Z,26.90
2023-01-13T00:16:29.383Z,26.90
2023-01-13T00:18:58.181Z,27.30
2023-01-13T00:21:28.190Z,28.00
2023-01-13T00:23:57.339Z,28.40
2023-01-13T00:26:30.807Z,29.10
2023-01-13T00:29:00.806Z,29.40
2023-01-13T00:31:31.208Z,29.30
2023-01-13T00:34:01.547Z,29.20
2023-01-13T00:36:32.249Z,29.70
2023-01-13T00:39:01.267Z,29.60
2023-01-13T00:41:50.038Z,29.90
2023-01-13T00:44:17.802Z,30.00
2023-01-13T00:46:46.379Z,29.90
2023-01-13T00:49:15.026Z,31.00
2023-01-13T00:51:44.945Z,31.30
2023-01-13T00:54:13.645Z,30.80
2023-01-13T00:56:42.226Z,31.30
2023-01-13T00:59:14.799Z,31.30
2023-01-13T01:01:43.937Z,30.70
2023-01-13T01:04:12.646Z,30.90
2023-01-13T01:06:41.251Z,30.80
2023-01-13T01:09:16.095Z,30.50
2023-01-13T01:11:46.049Z,30.00
2023-01-13T01:14:15.925Z,29.90
2023-01-13T01:16:44.481Z,29.70
2023-01-13T01:19:13.155Z,29.50
2023-01-13T01:21:41.935Z,29.40
2023-01-13T01:24:12.773Z,29.20
2023-01-13T01:26:42.054Z,28.80
2023-01-13T01:29:14.000Z,28.70
2023-01-13T01:31:42.656Z,29.00
2023-01-13T01:34:11.283Z,29.60
2023-01-13T01:36:41.259Z,29.70
2023-01-13T01:39:12.260Z,29.80
2023-01-13T01:42:00.853Z,29.90
2023-01-13T01:45:03.277Z,30.00
2023-01-13T01:47:33.741Z,29.90
2023-01-13T01:50:04.884Z,29.40
2023-01-13T01:52:40.284Z,29.30
2023-01-13T01:55:15.574Z,29.00
2023-01-13T01:57:48.857Z,28.70
2023-01-13T02:00:17.912Z,28.90
2023-01-13T02:02:51.302Z,29.60
2023-01-13T02:05:21.047Z,29.60
2023-01-13T02:07:54.609Z,30.50
2023-01-13T02:10:28.349Z,30.30
2023-01-13T02:13:01.699Z,30.50
2023-01-13T02:15:39.717Z,30.50
2023-01-13T02:18:25.302Z,30.90
2023-01-13T02:21:10.734Z,31.30
2023-01-13T02:24:44.680Z,31.50
2023-01-13T02:28:15.072Z,32.10
2023-01-13T02:31:10.188Z,32.50
2023-01-13T02:33:56.406Z,33.10
2023-01-13T02:36:37.511Z,33.90
2023-01-13T02:39:15.185Z,34.50
2023-01-13T02:42:09.834Z,35.40
2023-01-13T02:44:48.881Z,35.80
2023-01-13T02:47:22.678Z,36.30
2023-01-13T02:49:57.348Z,36.80
2023-01-13T02:52:32.991Z,36.70
2023-01-13T02:55:09.328Z,36.70
2023-01-13T02:57:40.756Z,36.50
2023-01-13T03:00:14.090Z,36.80
2023-01-13T03:02:44.091Z,36.40
2023-01-13T03:05:18.990Z,36.40
2023-01-13T03:08:17.913Z,35.50
2023-01-13T03:11:02.334Z,35.10
2023-01-13T03:14:10.718Z,36.00
2023-01-13T03:16:57.845Z,35.40
2023-01-13T03:19:44.092Z,35.90
2023-01-13T03:22:24.137Z,35.60
2023-01-13T03:25:02.007Z,36.00
2023-01-13T03:27:38.835Z,36.20
2023-01-13T03:30:13.482Z,36.30
2023-01-13T03:32:47.272Z,36.60
2023-01-13T03:35:24.617Z,36.70
2023-01-13T03:38:02.205Z,36.80
2023-01-13T03:40:36.629Z,37.20
2023-01-13T03:43:32.524Z,36.70
2023-01-13T03:46:10.087Z,36.70
2023-01-13T03:48:43.664Z,36.50
2023-01-13T03:51:19.222Z,36.50
2023-01-13T03:53:55.029Z,36.50
2023-01-13T03:56:29.796Z,36.00
2023-01-13T03:59:05.044Z,35.60
2023-01-13T04:01:40.460Z,35.00
2023-01-13T04:04:13.470Z,35.00
2023-01-13T04:06:55.368Z,34.90
2023-01-13T04:09:34.635Z,35.00
2023-01-13T04:12:11.840Z,35.10
2023-01-13T04:14:41.904Z,35.20
2023-01-13T04:17:10.430Z,35.00
2023-01-13T04:19:38.881Z,35.30
2023-01-13T04:22:08.708Z,34.90
2023-01-13T04:24:40.136Z,35.60
2023-01-13T04:27:08.607Z,35.80
2023-01-13T04:29:37.115Z,35.80
2023-01-13T04:32:05.577Z,35.50
2023-01-13T04:34:34.220Z,36.00
2023-01-13T04:37:02.923Z,35.90
2023-01-13T04:39:32.759Z,35.60
2023-01-13T04:42:02.568Z,35.50
2023-01-13T04:44:35.494Z,35.30
2023-01-13T04:47:04.475Z,35.20
2023-01-13T04:49:33.315Z,35.30
2023-01-13T04:52:02.372Z,35.10
2023-01-13T04:54:32.207Z,35.10
2023-01-13T04:57:00.676Z,34.90
2023-01-13T04:59:29.160Z,34.70
2023-01-13T05:01:57.675Z,34.40
2023-01-13T05:04:26.248Z,34.30
2023-01-13T05:06:54.826Z,34.50
2023-01-13T05:09:23.239Z,34.70
2023-01-13T05:12:10.445Z,34.30
2023-01-13T05:14:56.350Z,34.30
2023-01-13T05:17:26.566Z,33.60
2023-01-13T05:19:54.979Z,34.40
2023-01-13T05:22:40.922Z,34.60
2023-01-13T05:25:24.557Z,34.60
2023-01-13T05:27:56.446Z,34.20
2023-01-13T05:30:30.317Z,34.20
2023-01-13T05:32:58.837Z,34.90
2023-01-13T05:35:29.240Z,35.10
2023-01-13T05:37:58.217Z,35.40
2023-01-13T05:40:44.147Z,35.30
2023-01-13T05:43:21.743Z,35.20
2023-01-13T05:45:53.186Z,34.80
2023-01-13T05:48:25.274Z,35.40
2023-01-13T05:50:54.117Z,35.60
2023-01-13T05:53:23.525Z,35.60
2023-01-13T05:55:52.575Z,35.60
2023-01-13T05:58:25.314Z,35.70
2023-01-13T06:00:54.541Z,35.80
2023-01-13T06:03:23.720Z,35.70
2023-01-13T06:05:58.482Z,35.70
2023-01-13T06:08:27.520Z,35.70
2023-01-13T06:10:56.119Z,35.40
2023-01-13T06:13:26.364Z,36.10
2023-01-13T06:15:58.783Z,35.30
2023-01-13T06:18:28.612Z,35.50
2023-01-13T06:20:57.359Z,35.80
2023-01-13T06:23:25.956Z,35.40
2023-01-13T06:26:05.319Z,35.50
2023-01-13T06:28:35.600Z,35.30
2023-01-13T06:31:09.451Z,35.80
2023-01-13T06:33:42.070Z,36.10
2023-01-13T06:36:18.007Z,36.30
2023-01-13T06:38:54.110Z,35.80
2023-01-13T06:41:43.943Z,36.50
2023-01-13T06:44:12.764Z,35.90
2023-01-13T06:46:41.388Z,35.70
2023-01-13T06:49:10.235Z,35.50
2023-01-13T06:51:38.939Z,35.50
2023-01-13T06:54:07.553Z,35.50
2023-01-13T06:56:36.013Z,35.20
2023-01-13T06:59:04.505Z,34.80
2023-01-13T07:01:34.682Z,34.40
2023-01-13T07:04:03.669Z,34.40
2023-01-13T07:06:32.435Z,34.60
2023-01-13T07:09:00.890Z,35.00
2023-01-13T07:11:29.292Z,35.10
2023-01-13T07:14:15.018Z,35.30
2023-01-13T07:16:45.164Z,35.20
2023-01-13T07:19:13.810Z,35.40
2023-01-13T07:21:42.241Z,35.50
2023-01-13T07:24:10.667Z,35.90
2023-01-13T07:26:39.495Z,36.60
2023-01-13T07:29:07.893Z,37.20
2023-01-13T07:31:36.644Z,37.60
2023-01-13T07:34:06.704Z,37.40
2023-01-13T07:36:35.779Z,37.10
2023-01-13T07:39:04.747Z,37.00
2023-01-13T07:41:50.790Z,36.80
2023-01-13T07:44:19.432Z,37.70
2023-01-13T07:46:47.833Z,38.00
2023-01-13T07:49:17.773Z,37.90
2023-01-13T07:51:46.248Z,37.70
2023-01-13T07:54:14.657Z,37.60
2023-01-13T07:56:43.279Z,37.50
2023-01-13T07:59:11.751Z,37.30
2023-01-13T08:01:40.372Z,36.90
2023-01-13T08:04:08.912Z,37.00
2023-01-13T08:06:40.963Z,37.30
2023-01-13T08:09:11.652Z,37.30
2023-01-13T08:11:40.142Z,37.80
2023-01-13T08:14:08.632Z,37.80
2023-01-13T08:16:37.221Z,37.80
2023-01-13T08:19:07.099Z,37.60
2023-01-13T08:21:39.502Z,37.50
2023-01-13T08:24:19.213Z,37.10
2023-01-13T08:26:47.860Z,36.70
2023-01-13T08:29:16.740Z,36.70
2023-01-13T08:31:46.581Z,36.50
2023-01-13T08:34:15.276Z,36.30
2023-01-13T08:36:45.576Z,35.90
2023-01-13T08:39:14.291Z,36.00
2023-01-13T08:41:57.035Z,35.60
2023-01-13T08:44:28.463Z,35.80
2023-01-13T08:46:57.836Z,35.90
2023-01-13T08:49:27.747Z,35.80
2023-01-13T08:51:57.668Z,35.70
2023-01-13T08:54:26.069Z,35.80
2023-01-13T08:56:54.670Z,35.50
2023-01-13T08:59:23.215Z,34.00
2023-01-13T09:01:51.856Z,34.10
2023-01-13T09:04:27.758Z,34.00
2023-01-13T09:06:58.266Z,34.30
2023-01-13T09:09:27.855Z,34.00
2023-01-13T09:12:13.580Z,33.80
2023-01-13T09:14:42.094Z,34.00
2023-01-13T09:17:10.522Z,35.40
2023-01-13T09:19:39.096Z,35.70
2023-01-13T09:22:15.176Z,37.10
2023-01-13T09:24:51.826Z,37.10
2023-01-13T09:27:20.777Z,37.00
2023-01-13T09:29:49.332Z,38.40
2023-01-13T09:32:18.133Z,39.50
2023-01-13T09:35:00.821Z,40.80
2023-01-13T09:37:34.333Z,41.30
2023-01-13T09:40:03.426Z,41.90
2023-01-13T09:43:05.331Z,43.20
2023-01-13T09:45:40.261Z,43.50
2023-01-13T09:48:17.602Z,43.80
2023-01-13T09:51:09.728Z,45.40
2023-01-13T09:53:48.410Z,45.50
2023-01-13T09:56:17.496Z,46.80
2023-01-13T09:58:48.445Z,47.20
2023-01-13T10:01:28.612Z,47.40
2023-01-13T10:03:57.292Z,48.00
2023-01-13T10:06:36.231Z,49.60
2023-01-13T10:09:07.413Z,51.00
2023-01-13T10:11:58.988Z,51.90
2023-01-13T10:14:36.261Z,52.30
2023-01-13T10:17:20.079Z,53.50
2023-01-13T10:19:56.827Z,53.40
2023-01-13T10:22:52.216Z,53.60
2023-01-13T10:25:41.640Z,53.90
2023-01-13T10:28:13.532Z,53.60
2023-01-13T10:30:45.791Z,54.70
2023-01-13T10:33:18.228Z,54.80
2023-01-13T10:36:00.437Z,55.20
2023-01-13T10:38:37.383Z,55.10
2023-01-13T10:41:19.703Z,55.10
2023-01-13T10:44:04.613Z,55.20
2023-01-13T10:46:36.042Z,55.00
2023-01-13T10:49:27.398Z,55.10
2023-01-13T10:51:56.200Z,55.10
2023-01-13T10:54:27.558Z,55.70
2023-01-13T10:57:21.724Z,54.20
2023-01-13T10:59:51.306Z,55.10
2023-01-13T11:02:28.031Z,55.70
2023-01-13T11:05:22.960Z,55.20
2023-01-13T11:07:56.404Z,55.40
2023-01-13T11:10:27.558Z,56.40
2023-01-13T11:13:10.968Z,57.00
2023-01-13T11:15:47.484Z,57.80
2023-01-13T11:18:26.852Z,57.40
2023-01-13T11:20:57.898Z,56.00
2023-01-13T11:23:35.937Z,56.70
2023-01-13T11:26:13.405Z,56.60
2023-01-13T11:28:54.684Z,56.00
2023-01-13T11:31:32.409Z,56.70
2023-01-13T11:34:09.420Z,56.70
2023-01-13T11:36:46.125Z,56.10
2023-01-13T11:39:27.137Z,55.30
2023-01-13T11:42:20.899Z,55.70
2023-01-13T11:45:06.794Z,55.50
2023-01-13T11:47:37.725Z,55.70
2023-01-13T11:50:26.586Z,55.40
2023-01-13T11:53:16.577Z,55.10
2023-01-13T11:56:00.524Z,54.90
2023-01-13T11:58:56.643Z,55.00
2023-01-13T12:01:45.052Z,54.80
2023-01-13T12:04:30.684Z,55.00
2023-01-13T12:07:20.723Z,54.90
2023-01-13T12:10:21.090Z,55.70
2023-01-13T12:13:16.342Z,52.80
2023-01-13T12:16:16.498Z,54.00
2023-01-13T12:19:19.245Z,54.20
2023-01-13T12:22:12.692Z,56.40
2023-01-13T12:24:54.956Z,55.90
2023-01-13T12:27:39.208Z,55.90
2023-01-13T12:30:25.227Z,55.20
2023-01-13T12:32:56.214Z,54.60
2023-01-13T12:35:40.787Z,56.70
2023-01-13T12:38:21.390Z,56.30
2023-01-13T12:41:01.630Z,56.40
2023-01-13T12:43:48.950Z,55.90
2023-01-13T12:46:46.445Z,55.90
2023-01-13T12:49:27.630Z,57.90
2023-01-13T12:52:20.222Z,58.70
2023-01-13T12:55:21.710Z,57.70
2023-01-13T12:58:14.839Z,57.90
2023-01-13T13:01:14.809Z,57.00
2023-01-13T13:04:12.861Z,56.30
2023-01-13T13:06:46.234Z,57.30
2023-01-13T13:09:29.101Z,56.30
2023-01-13T13:12:15.183Z,50.60
2023-01-13T13:15:10.009Z,50.40
2023-01-13T13:17:59.521Z,45.10
2023-01-13T13:21:04.701Z,47.00
2023-01-13T13:24:12.128Z,47.80
2023-01-13T13:26:46.889Z,43.10
2023-01-13T13:29:46.221Z,43.70
2023-01-13T13:32:57.418Z,43.70
2023-01-13T13:36:03.755Z,46.80
2023-01-13T13:39:25.049Z,47.50
2023-01-13T13:42:23.417Z,47.50
2023-01-13T13:45:10.521Z,47.70
2023-01-13T13:47:40.243Z,44.70
2023-01-13T13:50:15.912Z,46.20
2023-01-13T13:52:54.718Z,44.20
2023-01-13T13:55:27.057Z,45.10
2023-01-13T13:57:58.971Z,45.20
2023-01-13T14:00:58.908Z,44.50
2023-01-13T14:03:40.065Z,44.00
2023-01-13T14:06:26.050Z,45.80
2023-01-13T14:09:12.015Z,45.70
2023-01-13T14:11:47.580Z,46.70
2023-01-13T14:14:29.136Z,47.50
2023-01-13T14:16:58.941Z,47.50
2023-01-13T14:19:33.787Z,47.30
2023-01-13T14:22:05.986Z,47.50
2023-01-13T14:24:55.709Z,48.00
2023-01-13T14:27:33.968Z,47.30
2023-01-13T14:30:13.634Z,47.10
2023-01-13T14:32:49.425Z,46.30
2023-01-13T14:35:26.965Z,46.10
2023-01-13T14:38:21.254Z,45.80
2023-01-13T14:40:51.300Z,46.80
2023-01-13T14:43:26.166Z,47.00
2023-01-13T14:46:00.952Z,47.30
2023-01-13T14:48:35.901Z,47.00
2023-01-13T14:51:10.591Z,47.40
2023-01-13T14:53:43.811Z,47.40
2023-01-13T14:56:51.480Z,46.70
2023-01-13T14:59:51.822Z,47.00
2023-01-13T15:02:44.012Z,46.60
2023-01-13T15:05:52.978Z,46.60
2023-01-13T15:08:35.812Z,47.20
2023-01-13T15:11:11.113Z,47.90
2023-01-13T15:13:53.185Z,49.00
2023-01-13T15:16:27.774Z,50.60
2023-01-13T15:19:03.573Z,51.30
2023-01-13T15:21:43.210Z,50.70
2023-01-13T15:24:12.801Z,52.30
2023-01-13T15:26:42.349Z,52.80
2023-01-13T15:29:16.215Z,52.40
2023-01-13T15:31:49.408Z,51.30
2023-01-13T15:34:21.844Z,52.00
2023-01-13T15:36:51.256Z,52.40
2023-01-13T15:39:20.094Z,52.80
2023-01-13T15:42:06.095Z,52.10
2023-01-13T15:44:57.335Z,51.60
2023-01-13T15:47:28.729Z,51.10
2023-01-13T15:50:03.126Z,50.50
2023-01-13T15:52:34.932Z,50.00
2023-01-13T15:55:09.462Z,49.90
2023-01-13T15:57:51.011Z,49.80
2023-01-13T16:00:31.132Z,49.70
2023-01-13T16:03:11.769Z,49.80
2023-01-13T16:05:53.372Z,49.50
2023-01-13T16:11:35.573Z,48.80
2023-01-13T16:14:04.424Z,48.70
2023-01-13T16:16:34.635Z,48.60
2023-01-13T16:19:03.249Z,49.40
2023-01-13T16:21:31.967Z,49.90
2023-01-13T16:24:00.656Z,50.40
2023-01-13T16:26:32.798Z,50.30
2023-01-13T16:29:01.472Z,50.40
2023-01-13T16:31:34.666Z,50.80
2023-01-13T16:34:05.316Z,51.00
2023-01-13T16:36:37.628Z,51.70
2023-01-13T16:39:20.336Z,51.90
2023-01-13T16:41:49.196Z,52.40
2023-01-13T16:44:18.124Z,52.60
2023-01-13T16:46:48.381Z,52.50
2023-01-13T16:49:18.684Z,52.70
2023-01-13T16:51:47.361Z,52.20
2023-01-13T16:54:16.148Z,51.90
2023-01-13T16:56:45.419Z,52.00
2023-01-13T16:59:15.592Z,52.40
2023-01-13T17:01:45.924Z,52.40
2023-01-13T17:04:20.205Z,52.20
2023-01-13T17:06:58.412Z,51.70
2023-01-13T17:09:30.458Z,51.40
2023-01-13T17:11:59.684Z,50.90
2023-01-13T17:14:28.603Z,50.40
2023-01-13T17:17:00.854Z,50.40
2023-01-13T17:19:31.177Z,50.20
2023-01-13T17:21:59.870Z,50.30
2023-01-13T17:24:31.150Z,50.20
2023-01-13T17:26:59.775Z,49.90
2023-01-13T17:29:28.709Z,49.70
2023-01-13T17:31:57.553Z,49.80
2023-01-13T17:34:26.260Z,49.80
2023-01-13T17:36:56.603Z,50.00
2023-01-13T17:39:27.726Z,50.00
2023-01-13T17:41:57.224Z,49.80
2023-01-13T17:44:26.048Z,49.70
2023-01-13T17:46:54.861Z,49.60
2023-01-13T17:49:23.604Z,49.30
2023-01-13T17:51:53.078Z,49.50
2023-01-13T17:54:23.920Z,49.50
2023-01-13T17:56:52.875Z,49.70
2023-01-13T17:59:22.620Z,50.00
2023-01-13T18:01:51.944Z,49.90
2023-01-13T18:04:23.039Z,49.90
2023-01-13T18:06:52.049Z,50.10
2023-01-13T18:09:23.436Z,50.10
2023-01-13T18:11:52.041Z,50.00
2023-01-13T18:14:22.583Z,49.70
2023-01-13T18:16:51.325Z,50.10
2023-01-13T18:19:37.527Z,51.10
2023-01-13T18:22:23.512Z,52.50
2023-01-13T18:25:10.934Z,53.00
2023-01-13T18:27:41.503Z,52.20
2023-01-13T18:30:12.632Z,52.30
2023-01-13T18:32:43.487Z,52.00
2023-01-13T18:35:12.166Z,52.80
2023-01-13T18:37:43.130Z,53.00
2023-01-13T18:40:15.081Z,52.70
2023-01-13T18:42:51.818Z,53.30
2023-01-13T18:45:25.623Z,53.10
2023-01-13T18:47:58.377Z,53.20
2023-01-13T18:50:28.291Z,52.90
2023-01-13T18:52:57.906Z,53.20
2023-01-13T18:55:28.824Z,51.80
2023-01-13T18:57:59.035Z,51.00
2023-01-13T19:00:28.084Z,50.40
2023-01-13T19:05:36.353Z,50.50
2023-01-13T19:08:05.243Z,50.60
2023-01-13T19:10:36.325Z,50.90
2023-01-13T19:13:05.501Z,51.00
2023-01-13T19:15:34.152Z,51.30
2023-01-13T19:18:02.677Z,50.80
2023-01-13T19:20:34.187Z,50.60
2023-01-13T19:23:02.726Z,50.70
2023-01-13T19:25:31.320Z,50.30
2023-01-13T19:28:01.255Z,52.10
2023-01-13T19:30:29.765Z,51.80
2023-01-13T19:32:58.614Z,51.70
2023-01-13T19:35:27.295Z,51.30
2023-01-13T19:37:56.430Z,50.40
2023-01-13T19:40:25.119Z,50.20
2023-01-13T19:43:11.101Z,50.30
2023-01-13T19:45:41.147Z,50.50
2023-01-13T19:48:09.866Z,50.10
2023-01-13T19:50:39.882Z,49.90
2023-01-13T19:53:15.489Z,49.50
2023-01-13T19:55:48.401Z,49.50
2023-01-13T19:58:18.865Z,48.90
2023-01-13T20:00:49.167Z,48.60
2023-01-13T20:03:23.738Z,49.40
2023-01-13T20:05:52.772Z,50.10
2023-01-13T20:08:23.353Z,49.80
2023-01-13T20:11:11.911Z,49.90
2023-01-13T20:13:40.489Z,50.40
2023-01-13T20:16:11.442Z,50.00
2023-01-13T20:18:40.135Z,48.90
2023-01-13T20:21:09.825Z,49.30
2023-01-13T20:23:38.347Z,49.40
2023-01-13T20:26:09.603Z,50.00
2023-01-13T20:28:39.517Z,50.60
2023-01-13T20:31:11.709Z,50.20
2023-01-13T20:33:40.778Z,51.10
2023-01-13T20:36:16.669Z,50.90
2023-01-13T20:38:45.150Z,50.80
2023-01-13T20:41:27.471Z,50.30
2023-01-13T20:43:56.697Z,49.90
2023-01-13T20:46:26.636Z,49.90
2023-01-13T20:48:55.301Z,49.40
2023-01-13T20:51:23.748Z,49.00
2023-01-13T20:53:52.463Z,48.10
2023-01-13T20:56:21.084Z,46.60
2023-01-13T20:58:49.693Z,46.90
2023-01-13T21:01:18.271Z,45.80
2023-01-13T21:03:48.619Z,46.20
2023-01-13T21:06:20.478Z,46.70
2023-01-13T21:08:49.040Z,47.30
2023-01-13T21:11:38.532Z,47.50
2023-01-13T21:14:24.873Z,47.60
2023-01-13T21:16:53.481Z,48.70
2023-01-13T21:19:22.747Z,48.60
2023-01-13T21:21:51.521Z,49.00
2023-01-13T21:24:20.129Z,47.90
2023-01-13T21:26:49.311Z,47.90
2023-01-13T21:29:18.056Z,49.30
2023-01-13T21:31:46.639Z,50.60
2023-01-13T21:34:15.220Z,51.00
2023-01-13T21:36:45.149Z,51.10
2023-01-13T21:39:15.710Z,53.20
2023-01-13T21:42:00.994Z,53.50
2023-01-13T21:44:46.861Z,53.70
2023-01-13T21:47:36.354Z,53.00
2023-01-13T21:50:09.231Z,52.30
2023-01-13T21:52:39.687Z,51.50
2023-01-13T21:55:20.525Z,51.10
2023-01-13T21:57:51.409Z,50.50
2023-01-13T22:00:22.670Z,51.00
2023-01-13T22:02:51.735Z,51.10
2023-01-13T22:05:23.012Z,51.90
2023-01-13T22:07:53.973Z,52.00
2023-01-13T22:10:25.261Z,51.70
2023-01-13T22:12:55.394Z,51.70
2023-01-13T22:15:26.955Z,51.70
2023-01-13T22:17:56.921Z,51.30
2023-01-13T22:20:25.643Z,50.60
2023-01-13T22:22:55.632Z,51.10
2023-01-13T22:25:24.403Z,51.00
2023-01-13T22:27:55.984Z,51.40
2023-01-13T22:30:25.173Z,51.00
2023-01-13T22:32:53.721Z,51.40
2023-01-13T22:35:22.337Z,51.40
2023-01-13T22:37:50.899Z,51.60
2023-01-13T22:40:21.269Z,51.10
2023-01-13T22:42:49.936Z,51.30
2023-01-13T22:45:18.836Z,52.10
2023-01-13T22:47:49.683Z,52.30
2023-01-13T22:50:21.152Z,54.10
2023-01-13T22:52:49.832Z,53.90
2023-01-13T22:55:18.472Z,54.40
2023-01-13T22:57:48.648Z,54.60
2023-01-13T23:00:19.513Z,53.90
2023-01-13T23:02:48.235Z,52.80
2023-01-13T23:05:17.551Z,52.70
2023-01-13T23:07:46.154Z,52.40
2023-01-13T23:10:14.997Z,53.50
2023-01-13T23:12:43.614Z,53.80
2023-01-13T23:15:13.871Z,54.00
2023-01-13T23:17:42.509Z,54.10
2023-01-13T23:20:12.679Z,54.10
2023-01-13T23:22:41.183Z,53.70
2023-01-13T23:25:11.508Z,52.30
2023-01-13T23:27:40.107Z,52.30
2023-01-13T23:30:13.402Z,52.30
2023-01-13T23:32:42.005Z,52.80
2023-01-13T23:35:11.290Z,52.60
2023-01-13T23:37:39.799Z,52.60
2023-01-13T23:40:09.831Z,52.20
2023-01-13T23:42:38.548Z,53.10
2023-01-13T23:45:08.765Z,53.10
2023-01-13T23:47:38.744Z,52.70
2023-01-13T23:50:08.137Z,51.40
2023-01-13T23:52:36.860Z,51.50
2023-01-13T23:55:06.404Z,51.50
2023-01-13T23:57:35.153Z,51.40
